createdAt,value
2023-05-15T00:03:16.624Z,57.87
2023-05-15T00:08:19.331Z,57.95
2023-05-15T00:13:21.871Z,58.48
2023-05-15T00:18:24.546Z,58.57
2023-05-15T00:23:27.458Z,59.02
2023-05-15T00:28:30.341Z,59.36
2023-05-15T00:33:33.106Z,59.51
2023-05-15T00:38:36.083Z,60.13
2023-05-15T00:43:40.607Z,60.15
2023-05-15T00:48:44.698Z,60.79
2023-05-15T00:53:47.893Z,61.39
2023-05-15T00:58:52.291Z,61.47
2023-05-15T01:03:55.008Z,61.55
2023-05-15T01:09:02.491Z,61.21
2023-05-15T01:14:07.438Z,61.06
2023-05-15T01:19:10.553Z,61.00
2023-05-15T01:24:34.328Z,60.98
2023-05-15T01:29:53.263Z,61.13
2023-05-15T01:35:27.530Z,61.11
2023-05-15T01:40:30.661Z,60.99
2023-05-15T01:45:34.545Z,61.40
2023-05-15T01:50:39.585Z,61.80
2023-05-15T01:55:42.962Z,61.60
2023-05-15T02:00:47.107Z,61.27
2023-05-15T02:05:51.883Z,60.92
2023-05-15T02:10:57.534Z,60.96
2023-05-15T02:16:00.386Z,61.22
2023-05-15T02:21:03.613Z,61.37
2023-05-15T02:26:19.658Z,61.49
2023-05-15T02:31:32.797Z,61.70
2023-05-15T02:36:41.021Z,62.13
2023-05-15T02:41:46.950Z,62.46
2023-05-15T02:46:53.954Z,62.42
2023-05-15T02:51:56.955Z,62.40
2023-05-15T02:56:59.722Z,61.98
2023-05-15T03:02:03.909Z,61.48
2023-05-15T03:07:06.494Z,60.63
2023-05-15T03:12:09.906Z,60.32
2023-05-15T03:17:13.026Z,60.07
2023-05-15T03:22:15.949Z,59.72
2023-05-15T03:27:18.812Z,59.47
2023-05-15T03:32:21.668Z,59.43
2023-05-15T03:37:24.234Z,59.06
2023-05-15T03:42:28.330Z,58.06
2023-05-15T03:47:31.105Z,57.98
2023-05-15T03:52:33.722Z,56.68
2023-05-15T03:57:37.089Z,53.84
2023-05-15T04:02:58.553Z,52.98
2023-05-15T04:08:01.655Z,54.26
2023-05-15T04:13:04.500Z,54.92
2023-05-15T04:18:07.365Z,55.17
2023-05-15T04:23:10.025Z,53.31
2023-05-15T04:28:13.852Z,52.60
2023-05-15T04:33:16.929Z,52.96
2023-05-15T04:38:20.033Z,53.42
2023-05-15T04:43:23.254Z,53.15
2023-05-15T04:48:26.114Z,53.31
2023-05-15T04:53:28.781Z,53.52
2023-05-15T04:58:31.541Z,53.92
2023-05-15T05:03:34.602Z,53.86
2023-05-15T05:08:37.263Z,53.73
2023-05-15T05:13:40.484Z,50.76
2023-05-15T05:18:43.392Z,47.53
2023-05-15T05:23:47.560Z,44.84
2023-05-15T05:28:50.352Z,44.72
2023-05-15T05:33:53.139Z,41.27
2023-05-15T05:38:56.078Z,38.60
2023-05-15T05:43:58.802Z,36.69
2023-05-15T05:49:01.786Z,35.18
2023-05-15T05:54:04.767Z,34.13
2023-05-15T05:59:07.588Z,33.04
2023-05-15T06:04:10.553Z,31.98
2023-05-15T06:09:13.730Z,30.94
2023-05-15T06:14:16.442Z,30.34
2023-05-15T06:19:19.463Z,30.14
2023-05-15T06:24:22.318Z,30.48
2023-05-15T06:29:25.129Z,29.17
2023-05-15T06:34:28.007Z,30.40
2023-05-15T06:39:30.930Z,29.87
2023-05-15T06:44:33.924Z,30.15
2023-05-15T06:49:36.670Z,29.39
2023-05-15T06:54:40.842Z,29.11
2023-05-15T06:59:43.827Z,28.76
2023-05-15T07:04:46.845Z,28.12
2023-05-15T07:09:50.637Z,27.79
2023-05-15T07:14:53.531Z,27.36
2023-05-15T07:19:56.246Z,26.75
2023-05-15T07:24:59.054Z,26.59
2023-05-15T07:30:04.956Z,26.63
2023-05-15T07:35:08.506Z,25.89
2023-05-15T07:40:11.512Z,25.96
2023-05-15T07:45:14.467Z,25.44
2023-05-15T07:50:17.568Z,25.25
2023-05-15T07:55:20.300Z,24.63
2023-05-15T08:00:23.421Z,24.63
2023-05-15T08:05:26.985Z,24.59
2023-05-15T08:10:29.790Z,24.53
2023-05-15T08:15:33.235Z,23.85
2023-05-15T08:20:36.218Z,23.68
2023-05-15T08:25:39.265Z,22.74
2023-05-15T08:30:42.002Z,22.54
2023-05-15T08:35:44.703Z,22.59
2023-05-15T08:40:51.789Z,22.43
2023-05-15T08:45:57.458Z,22.91
2023-05-15T09:13:48.164Z,22.43
2023-05-15T09:18:56.161Z,22.81
2023-05-15T09:24:29.058Z,22.52
2023-05-15T09:29:32.901Z,21.62
2023-05-15T09:34:41.530Z,21.80
2023-05-15T09:39:44.430Z,21.96
2023-05-15T09:44:47.541Z,22.69
2023-05-15T09:49:50.457Z,23.95
2023-05-15T09:54:54.324Z,24.19
2023-05-15T10:00:02.212Z,26.22
2023-05-15T10:05:16.369Z,23.76
2023-05-15T10:10:19.252Z,22.63
2023-05-15T10:15:23.383Z,22.01
2023-05-15T10:20:27.183Z,20.92
2023-05-15T10:25:42.212Z,21.07
2023-05-15T10:30:44.758Z,21.38
2023-05-15T10:35:49.406Z,21.17
2023-05-15T10:40:59.795Z,20.77
2023-05-15T10:46:09.474Z,20.32
2023-05-15T10:51:24.314Z,20.43
2023-05-15T10:56:30.973Z,20.25
2023-05-15T11:01:39.244Z,20.61
2023-05-15T11:07:04.613Z,20.79
2023-05-15T11:12:09.601Z,20.79
2023-05-15T11:17:15.801Z,20.49
2023-05-15T11:22:20.043Z,20.89
2023-05-15T11:27:28.328Z,21.27
2023-05-15T11:32:50.040Z,21.47
2023-05-15T11:38:04.222Z,21.50
2023-05-15T11:43:16.908Z,22.64
2023-05-15T11:48:20.580Z,22.85
2023-05-15T11:53:24.704Z,22.90
2023-05-15T11:58:27.516Z,23.44
2023-05-15T12:03:35.426Z,22.72
2023-05-15T12:08:38.910Z,23.79
2023-05-15T12:13:41.629Z,24.21
2023-05-15T12:18:44.256Z,25.39
2023-05-15T12:29:00.673Z,27.76
2023-05-15T12:34:03.561Z,28.22
2023-05-15T12:39:08.299Z,27.79
2023-05-15T12:44:18.678Z,27.08
2023-05-15T12:49:23.044Z,26.75
2023-05-15T12:54:26.848Z,26.97
2023-05-15T12:59:34.309Z,26.87
2023-05-15T13:04:38.041Z,27.37
2023-05-15T13:09:42.535Z,27.93
2023-05-15T13:14:52.236Z,28.57
2023-05-15T13:19:57.960Z,28.92
2023-05-15T13:25:01.821Z,29.61
2023-05-15T13:30:07.377Z,30.44
2023-05-15T13:35:10.702Z,30.57
2023-05-15T13:40:16.942Z,30.40
2023-05-15T13:45:21.277Z,30.45
2023-05-15T13:50:27.590Z,32.00
2023-05-15T13:55:32.090Z,37.90
2023-05-15T14:00:35.694Z,38.99
2023-05-15T14:05:43.140Z,39.92
2023-05-15T14:10:52.404Z,39.70
2023-05-15T14:15:56.216Z,39.74
2023-05-15T14:20:59.352Z,40.36
2023-05-15T14:26:02.786Z,40.74
2023-05-15T14:31:06.081Z,40.24
2023-05-15T14:36:09.472Z,40.29
2023-05-15T14:41:12.781Z,40.09
2023-05-15T14:46:16.300Z,39.76
2023-05-15T14:51:20.166Z,40.56
2023-05-15T14:56:23.540Z,40.42
2023-05-15T15:01:26.806Z,40.24
2023-05-15T15:06:30.085Z,39.63
2023-05-15T15:11:32.986Z,39.52
2023-05-15T15:16:35.730Z,39.15
2023-05-15T15:21:39.022Z,39.32
2023-05-15T15:26:41.809Z,39.73
2023-05-15T15:31:44.756Z,39.25
2023-05-15T15:36:48.365Z,38.77
2023-05-15T15:41:51.086Z,39.20
2023-05-15T15:46:53.951Z,39.77
2023-05-15T15:51:56.713Z,40.66
2023-05-15T15:56:59.680Z,44.49
2023-05-15T16:02:05.664Z,46.63
2023-05-15T16:07:08.498Z,47.41
2023-05-15T16:12:11.789Z,48.15
2023-05-15T16:17:14.413Z,48.55
2023-05-15T16:22:18.425Z,48.93
2023-05-15T16:27:21.200Z,49.88
2023-05-15T16:32:24.232Z,50.27
2023-05-15T16:37:26.914Z,50.67
2023-05-15T16:42:29.913Z,51.09
2023-05-15T16:47:32.977Z,51.16
2023-05-15T16:52:36.348Z,51.71
2023-05-15T16:57:39.110Z,51.85
2023-05-15T17:02:45.398Z,52.32
2023-05-15T17:07:48.520Z,52.52
2023-05-15T17:12:51.455Z,52.88
2023-05-15T17:17:54.585Z,53.14
2023-05-15T17:22:58.362Z,53.39
2023-05-15T17:28:03.316Z,53.24
2023-05-15T17:33:06.096Z,53.21
2023-05-15T17:38:11.444Z,53.77
2023-05-15T17:43:14.183Z,53.65
2023-05-15T17:48:16.956Z,53.92
2023-05-15T17:53:19.742Z,53.81
2023-05-15T17:58:22.554Z,53.50
2023-05-15T18:03:25.381Z,53.43
2023-05-15T18:08:28.097Z,53.53
2023-05-15T18:13:30.846Z,53.78
2023-05-15T18:18:35.711Z,53.84
2023-05-15T18:23:38.610Z,54.41
2023-05-15T18:28:41.742Z,54.61
2023-05-15T18:33:45.343Z,54.91
2023-05-15T18:38:48.244Z,55.34
2023-05-15T18:43:51.568Z,55.68
2023-05-15T18:48:54.642Z,55.79
2023-05-15T18:53:57.299Z,55.93
2023-05-15T18:59:00.053Z,56.43
2023-05-15T19:04:04.024Z,56.37
2023-05-15T19:09:06.593Z,56.82
2023-05-15T19:14:09.379Z,56.97
2023-05-15T19:19:12.713Z,57.54
2023-05-15T19:24:15.387Z,57.94
2023-05-15T19:29:18.340Z,58.20
2023-05-15T19:34:21.069Z,58.97
2023-05-15T19:39:23.717Z,59.08
2023-05-15T19:44:26.555Z,59.15
2023-05-15T19:49:29.393Z,59.52
2023-05-15T19:54:32.326Z,59.79
2023-05-15T19:59:35.245Z,60.07
2023-05-15T20:04:38.188Z,60.44
2023-05-15T20:09:40.818Z,60.82
2023-05-15T20:14:52.102Z,61.43
2023-05-15T20:19:54.629Z,61.25
2023-05-15T20:24:57.510Z,61.16
2023-05-15T20:30:01.688Z,61.82
2023-05-15T20:35:08.326Z,61.55
2023-05-15T20:40:13.118Z,62.07
2023-05-15T20:45:16.267Z,62.42
2023-05-15T20:50:19.283Z,62.63
2023-05-15T20:55:22.111Z,62.94
2023-05-15T21:00:25.149Z,63.25
2023-05-15T21:05:27.957Z,63.40
2023-05-15T21:10:30.636Z,63.65
2023-05-15T21:15:33.672Z,64.54
2023-05-15T21:20:36.475Z,64.56
2023-05-15T21:25:39.308Z,64.55
2023-05-15T21:30:41.897Z,64.53
2023-05-15T21:35:45.648Z,65.04
2023-05-15T21:40:48.655Z,64.88
2023-05-15T21:45:51.668Z,65.18
2023-05-15T21:50:57.937Z,65.48
2023-05-15T21:56:02.077Z,65.70
2023-05-15T22:01:04.978Z,65.75
2023-05-15T22:06:08.033Z,65.80
2023-05-15T22:11:10.782Z,65.89
2023-05-15T22:16:13.462Z,65.72
2023-05-15T22:21:16.645Z,65.72
2023-05-15T22:26:20.800Z,65.95
2023-05-15T22:31:23.781Z,65.37
2023-05-15T22:36:27.028Z,65.67
2023-05-15T22:41:29.716Z,65.37
2023-05-15T22:46:32.505Z,65.53
2023-05-15T22:51:35.608Z,65.39
2023-05-15T22:56:38.381Z,65.35
2023-05-15T23:01:41.568Z,65.54
2023-05-15T23:06:44.544Z,65.70
2023-05-15T23:11:47.343Z,65.64
2023-05-15T23:16:50.216Z,65.73
2023-05-15T23:21:52.979Z,65.86
2023-05-15T23:26:55.951Z,66.10
2023-05-15T23:31:58.690Z,65.46
2023-05-15T23:37:01.378Z,66.22
2023-05-15T23:42:04.193Z,66.06
2023-05-15T23:47:07.273Z,66.07
2023-05-15T23:52:10.143Z,66.07
2023-05-15T23:57:12.875Z,66.12
